CPA852 VHHH-KSEA
Flight info
| Callsign | CPA852 |
|---|---|
| Flight time | N/A |
| Altitude | 37000 |
| Route | DALOL V631 ENVAR M750 MELEN/N0482F390 M750 MUKEP Y891 OVSUN/N0477F380 Y893 IGMIS/N0477F390 Y57 POROT Y809 IDLAN Y812 ADNAP OTR5 KALNA DCT KALIG DCT CUTEE DCT CARTO/N0477F410 DCT 50N180E 51N170W 52N160W 53N150W 53N140W DCT MANJO DCT TOU JAWBN7 |
| Aircraft | A359/H-SDE2E3GHIJ3J4J5LM1ORWXY/LB1D1 |
Departure
| Time | 2026-05-05 14:23 |
|---|---|
| Airport | Hong Kong International Airport (VHHH) |
Arrival
| Time | N/A |
|---|---|
| Airport | Seattle–Tacoma International Airport (KSEA) |
| Time | Latitude | Longitude | Altitude | Speed | Heading |
|---|---|---|---|---|---|
| 2026-05-05 13:59 | 22.31810 | 113.93249 | 37 ft | 0 kts | 71° |
| 2026-05-05 14:10 | 22.31805 | 113.93235 | 38 ft | 2 kts | 71° |
| 2026-05-05 14:10 | 22.31800 | 113.93219 | 36 ft | 2 kts | 71° |
| 2026-05-05 14:11 | 22.31795 | 113.93202 | 35 ft | 2 kts | 71° |
| 2026-05-05 14:11 | 22.31789 | 113.93186 | 35 ft | 2 kts | 63° |
| 2026-05-05 14:11 | 22.31781 | 113.93173 | 35 ft | 2 kts | 40° |
| 2026-05-05 14:11 | 22.31770 | 113.93166 | 36 ft | 2 kts | 8° |
| 2026-05-05 14:12 | 22.31754 | 113.93165 | 37 ft | 2 kts | 359° |
| 2026-05-05 14:12 | 22.31738 | 113.93168 | 36 ft | 2 kts | 340° |
| 2026-05-05 14:12 | 22.31737 | 113.93169 | 37 ft | 0 kts | 340° |
| 2026-05-05 14:13 | 22.31740 | 113.93167 | 36 ft | 1 kts | 340° |
| 2026-05-05 14:14 | 22.31758 | 113.93161 | 35 ft | 4 kts | 340° |
| 2026-05-05 14:14 | 22.31795 | 113.93146 | 37 ft | 7 kts | 340° |
| 2026-05-05 14:14 | 22.31849 | 113.93124 | 38 ft | 8 kts | 336° |
| 2026-05-05 14:14 | 22.31867 | 113.93072 | 38 ft | 9 kts | 258° |
| 2026-05-05 14:15 | 22.31846 | 113.93004 | 38 ft | 11 kts | 251° |
| 2026-05-05 14:15 | 22.31860 | 113.92924 | 38 ft | 12 kts | 315° |
| 2026-05-05 14:15 | 22.31890 | 113.92848 | 38 ft | 12 kts | 266° |
| 2026-05-05 14:15 | 22.31860 | 113.92754 | 38 ft | 14 kts | 250° |
| 2026-05-05 14:16 | 22.31823 | 113.92645 | 38 ft | 17 kts | 251° |
| 2026-05-05 14:16 | 22.31783 | 113.92516 | 38 ft | 19 kts | 252° |
| 2026-05-05 14:16 | 22.31739 | 113.92374 | 38 ft | 21 kts | 250° |
| 2026-05-05 14:16 | 22.31690 | 113.92222 | 38 ft | 23 kts | 251° |
| 2026-05-05 14:17 | 22.31636 | 113.92054 | 38 ft | 24 kts | 250° |
| 2026-05-05 14:17 | 22.31577 | 113.91876 | 38 ft | 26 kts | 250° |
| 2026-05-05 14:17 | 22.31513 | 113.91687 | 38 ft | 28 kts | 250° |
| 2026-05-05 14:17 | 22.31457 | 113.91501 | 38 ft | 19 kts | 250° |
| 2026-05-05 14:18 | 22.31411 | 113.91362 | 38 ft | 21 kts | 250° |
| 2026-05-05 14:18 | 22.31361 | 113.91207 | 38 ft | 23 kts | 251° |
| 2026-05-05 14:18 | 22.31306 | 113.91041 | 38 ft | 25 kts | 250° |
| 2026-05-05 14:18 | 22.31248 | 113.90861 | 38 ft | 26 kts | 251° |
| 2026-05-05 14:19 | 22.31187 | 113.90669 | 38 ft | 28 kts | 251° |
| 2026-05-05 14:19 | 22.31121 | 113.90466 | 38 ft | 29 kts | 250° |
| 2026-05-05 14:19 | 22.31054 | 113.90253 | 38 ft | 29 kts | 251° |
| 2026-05-05 14:19 | 22.31038 | 113.90203 | 38 ft | 1 kts | 251° |
| 2026-05-05 14:20 | 22.31029 | 113.90178 | 38 ft | 5 kts | 251° |
| 2026-05-05 14:20 | 22.31015 | 113.90135 | 38 ft | 8 kts | 250° |
| 2026-05-05 14:20 | 22.30995 | 113.90072 | 38 ft | 10 kts | 250° |
| 2026-05-05 14:20 | 22.30978 | 113.90020 | 38 ft | 11 kts | 251° |
| 2026-05-05 14:21 | 22.30941 | 113.89904 | 38 ft | 14 kts | 251° |
| 2026-05-05 14:21 | 22.30930 | 113.89840 | 38 ft | 12 kts | 287° |
| 2026-05-05 14:21 | 22.31042 | 113.89779 | 36 ft | 13 kts | 352° |
| 2026-05-05 14:21 | 22.31099 | 113.89826 | 35 ft | 11 kts | 68° |
| 2026-05-05 14:22 | 22.31130 | 113.89917 | 36 ft | 18 kts | 70° |
| 2026-05-05 14:22 | 22.31188 | 113.90099 | 36 ft | 62 kts | 71° |
| 2026-05-05 14:22 | 22.31506 | 113.91085 | 36 ft | 146 kts | 71° |
| 2026-05-05 14:22 | 22.31868 | 113.92182 | 176 ft | 181 kts | 71° |
| 2026-05-05 14:23 | 22.32160 | 113.93016 | 792 ft | 170 kts | 71° |
| 2026-05-05 14:23 | 22.32578 | 113.94164 | 1725 ft | 163 kts | 71° |
| 2026-05-05 14:23 | 22.33002 | 113.95325 | 2154 ft | 175 kts | 72° |
| 2026-05-05 14:23 | 22.33447 | 113.96580 | 2380 ft | 195 kts | 72° |
| 2026-05-05 14:24 | 22.33945 | 113.98007 | 2785 ft | 205 kts | 72° |
| 2026-05-05 14:24 | 22.34458 | 113.99486 | 3288 ft | 214 kts | 71° |
| 2026-05-05 14:24 | 22.34982 | 114.01006 | 3730 ft | 222 kts | 72° |
| 2026-05-05 14:24 | 22.35308 | 114.02643 | 4233 ft | 226 kts | 91° |
| 2026-05-05 14:25 | 22.34885 | 114.04253 | 4753 ft | 225 kts | 123° |
| 2026-05-05 14:25 | 22.34067 | 114.05736 | 5285 ft | 230 kts | 122° |
| 2026-05-05 14:25 | 22.33121 | 114.07098 | 5854 ft | 230 kts | 138° |
| 2026-05-05 14:25 | 22.31798 | 114.08111 | 6280 ft | 238 kts | 156° |
| 2026-05-05 14:26 | 22.30211 | 114.08689 | 6695 ft | 245 kts | 172° |
| 2026-05-05 14:26 | 22.28507 | 114.08818 | 7188 ft | 249 kts | 182° |
| 2026-05-05 14:26 | 22.26706 | 114.08778 | 7499 ft | 265 kts | 183° |
| 2026-05-05 14:26 | 22.24837 | 114.08729 | 7949 ft | 273 kts | 182° |
| 2026-05-05 14:27 | 22.22924 | 114.08692 | 8522 ft | 278 kts | 182° |
| 2026-05-05 14:27 | 22.20978 | 114.08663 | 9141 ft | 281 kts | 182° |
| 2026-05-05 14:27 | 22.19001 | 114.08656 | 9750 ft | 285 kts | 180° |
| 2026-05-05 14:27 | 22.17032 | 114.09065 | 10222 ft | 298 kts | 161° |
| 2026-05-05 14:28 | 22.15300 | 114.10406 | 10448 ft | 320 kts | 131° |
| 2026-05-05 14:28 | 22.14111 | 114.12491 | 10699 ft | 337 kts | 119° |
| 2026-05-05 14:28 | 22.13053 | 114.14793 | 10938 ft | 351 kts | 118° |
| 2026-05-05 14:28 | 22.11954 | 114.17187 | 11177 ft | 364 kts | 118° |
| 2026-05-05 14:29 | 22.10787 | 114.19690 | 11561 ft | 372 kts | 118° |
| 2026-05-05 14:29 | 22.09622 | 114.22166 | 11995 ft | 377 kts | 119° |
| 2026-05-05 14:29 | 22.08380 | 114.24714 | 12450 ft | 381 kts | 123° |
| 2026-05-05 14:29 | 22.06746 | 114.26903 | 12898 ft | 379 kts | 141° |
| 2026-05-05 14:30 | 22.04687 | 114.28657 | 13384 ft | 380 kts | 147° |
| 2026-05-05 14:30 | 22.02534 | 114.30337 | 13842 ft | 384 kts | 147° |
| 2026-05-05 14:30 | 22.00346 | 114.32040 | 14244 ft | 388 kts | 147° |
| 2026-05-05 14:30 | 21.98147 | 114.33760 | 14636 ft | 391 kts | 147° |
| 2026-05-05 14:31 | 21.95939 | 114.35493 | 15034 ft | 395 kts | 147° |
| 2026-05-05 14:31 | 21.93708 | 114.37254 | 15442 ft | 399 kts | 147° |
| 2026-05-05 14:31 | 21.91462 | 114.39020 | 15844 ft | 402 kts | 147° |
| 2026-05-05 14:31 | 21.89193 | 114.40801 | 16222 ft | 406 kts | 147° |
| 2026-05-05 14:32 | 21.86928 | 114.42655 | 16619 ft | 412 kts | 142° |
| 2026-05-05 14:32 | 21.85015 | 114.44983 | 16991 ft | 421 kts | 124° |
| 2026-05-05 14:32 | 21.83824 | 114.47848 | 17383 ft | 427 kts | 108° |
| 2026-05-05 14:32 | 21.83009 | 114.50923 | 17775 ft | 431 kts | 106° |
| 2026-05-05 14:33 | 21.82227 | 114.54058 | 18171 ft | 434 kts | 106° |
| 2026-05-05 14:33 | 21.81434 | 114.57204 | 18525 ft | 437 kts | 106° |
| 2026-05-05 14:33 | 21.80628 | 114.60367 | 18894 ft | 440 kts | 106° |
| 2026-05-05 14:33 | 21.79809 | 114.63556 | 19234 ft | 442 kts | 107° |
| 2026-05-05 14:34 | 21.78987 | 114.66746 | 19626 ft | 443 kts | 107° |
| 2026-05-05 14:34 | 21.78161 | 114.69938 | 19990 ft | 445 kts | 107° |
| 2026-05-05 14:34 | 21.77329 | 114.73151 | 20328 ft | 448 kts | 107° |
| 2026-05-05 14:34 | 21.76487 | 114.76392 | 20672 ft | 450 kts | 107° |
| 2026-05-05 14:35 | 21.75642 | 114.79647 | 21016 ft | 452 kts | 107° |
| 2026-05-05 14:35 | 21.74812 | 114.82915 | 21351 ft | 455 kts | 105° |
| 2026-05-05 14:35 | 21.74318 | 114.86277 | 21479 ft | 454 kts | 95° |
| 2026-05-05 14:35 | 21.74157 | 114.89620 | 21474 ft | 438 kts | 91° |
| 2026-05-05 14:36 | 21.74154 | 114.92799 | 21471 ft | 421 kts | 89° |
| 2026-05-05 14:36 | 21.74210 | 114.95927 | 21470 ft | 407 kts | 89° |
| 2026-05-05 14:36 | 21.74273 | 114.98954 | 21490 ft | 404 kts | 89° |
| 2026-05-05 14:36 | 21.74321 | 115.01950 | 21480 ft | 405 kts | 89° |
| 2026-05-05 14:37 | 21.74350 | 115.04980 | 21483 ft | 405 kts | 90° |
| 2026-05-05 14:37 | 21.74363 | 115.08009 | 21482 ft | 406 kts | 90° |
| 2026-05-05 14:37 | 21.74365 | 115.11055 | 21482 ft | 406 kts | 90° |
| 2026-05-05 14:37 | 21.74361 | 115.13995 | 21482 ft | 407 kts | 90° |
| 2026-05-05 14:38 | 21.74357 | 115.16349 | 21488 ft | 415 kts | 90° |
| 2026-05-05 14:38 | 21.74349 | 115.19272 | 21488 ft | 428 kts | 90° |
| 2026-05-05 14:38 | 21.74342 | 115.22534 | 21650 ft | 436 kts | 90° |
| 2026-05-05 14:38 | 21.74340 | 115.25807 | 21880 ft | 442 kts | 90° |
| 2026-05-05 14:39 | 21.74334 | 115.29137 | 22065 ft | 449 kts | 90° |
| 2026-05-05 14:39 | 21.74325 | 115.32518 | 22258 ft | 456 kts | 90° |
| 2026-05-05 14:39 | 21.74316 | 115.35914 | 22433 ft | 461 kts | 90° |
| 2026-05-05 14:39 | 21.74305 | 115.39386 | 22708 ft | 465 kts | 90° |
| 2026-05-05 14:40 | 21.74295 | 115.42875 | 23020 ft | 468 kts | 90° |
| 2026-05-05 14:40 | 21.74284 | 115.46391 | 23329 ft | 471 kts | 91° |
| 2026-05-05 14:40 | 21.74273 | 115.49912 | 23631 ft | 473 kts | 91° |
| 2026-05-05 14:40 | 21.74261 | 115.53462 | 23872 ft | 476 kts | 91° |
| 2026-05-05 14:41 | 21.74249 | 115.57043 | 24102 ft | 478 kts | 90° |
| 2026-05-05 14:41 | 21.74234 | 115.60632 | 24351 ft | 480 kts | 90° |
| 2026-05-05 14:41 | 21.74218 | 115.64224 | 24605 ft | 483 kts | 90° |
| 2026-05-05 14:41 | 21.74205 | 115.67858 | 24838 ft | 485 kts | 90° |
| 2026-05-05 14:42 | 21.74192 | 115.71510 | 25045 ft | 488 kts | 90° |
| 2026-05-05 14:42 | 21.74178 | 115.75144 | 25308 ft | 490 kts | 90° |
| 2026-05-05 14:42 | 21.74163 | 115.78772 | 25556 ft | 492 kts | 90° |
| 2026-05-05 14:42 | 21.74146 | 115.82491 | 25807 ft | 494 kts | 90° |
| 2026-05-05 14:43 | 21.74128 | 115.86156 | 26015 ft | 496 kts | 90° |
| 2026-05-05 14:43 | 21.74109 | 115.89869 | 26260 ft | 498 kts | 90° |
| 2026-05-05 14:43 | 21.74089 | 115.93606 | 26508 ft | 500 kts | 90° |
| 2026-05-05 14:43 | 21.74068 | 115.97361 | 26745 ft | 502 kts | 90° |
| 2026-05-05 14:44 | 21.74046 | 116.01141 | 26981 ft | 505 kts | 90° |
| 2026-05-05 14:44 | 21.74023 | 116.04906 | 27228 ft | 506 kts | 90° |
| 2026-05-05 14:44 | 21.73999 | 116.08724 | 27467 ft | 509 kts | 90° |
| 2026-05-05 14:44 | 21.73974 | 116.12517 | 27706 ft | 511 kts | 90° |
| 2026-05-05 14:45 | 21.73948 | 116.16350 | 27949 ft | 513 kts | 90° |
| 2026-05-05 14:45 | 21.73922 | 116.20201 | 28203 ft | 515 kts | 90° |
| 2026-05-05 14:45 | 21.73894 | 116.24075 | 28440 ft | 517 kts | 90° |
| 2026-05-05 14:45 | 21.73866 | 116.27879 | 28669 ft | 519 kts | 90° |
| 2026-05-05 14:46 | 21.73836 | 116.31790 | 28921 ft | 522 kts | 90° |
| 2026-05-05 14:46 | 21.73807 | 116.35472 | 29152 ft | 524 kts | 90° |
| 2026-05-05 14:46 | 21.73777 | 116.39136 | 29393 ft | 525 kts | 90° |
| 2026-05-05 14:46 | 21.73744 | 116.43096 | 29672 ft | 527 kts | 90° |
| 2026-05-05 14:47 | 21.73710 | 116.47033 | 29908 ft | 530 kts | 90° |
| 2026-05-05 14:47 | 21.73675 | 116.51031 | 30137 ft | 533 kts | 90° |
| 2026-05-05 14:47 | 21.73639 | 116.55028 | 30365 ft | 535 kts | 90° |
| 2026-05-05 14:47 | 21.73601 | 116.59032 | 30605 ft | 537 kts | 90° |
| 2026-05-05 14:48 | 21.73563 | 116.63064 | 30838 ft | 539 kts | 90° |
| 2026-05-05 14:48 | 21.73523 | 116.67097 | 31088 ft | 541 kts | 90° |
| 2026-05-05 14:48 | 21.73482 | 116.71160 | 31337 ft | 542 kts | 90° |
| 2026-05-05 14:48 | 21.73517 | 116.75219 | 31555 ft | 544 kts | 85° |
| 2026-05-05 14:49 | 21.74024 | 116.79177 | 31787 ft | 543 kts | 75° |
| 2026-05-05 14:49 | 21.75096 | 116.83068 | 32005 ft | 543 kts | 68° |
| 2026-05-05 14:49 | 21.76386 | 116.86912 | 32192 ft | 544 kts | 66° |
| 2026-05-05 14:49 | 21.77748 | 116.90721 | 32417 ft | 545 kts | 65° |
| 2026-05-05 14:50 | 21.79140 | 116.94512 | 32640 ft | 547 kts | 65° |
| 2026-05-05 14:50 | 21.80550 | 116.98327 | 32852 ft | 548 kts | 65° |
| 2026-05-05 14:50 | 21.81955 | 117.02148 | 33058 ft | 550 kts | 65° |
| 2026-05-05 14:50 | 21.83356 | 117.05981 | 33306 ft | 551 kts | 65° |
| 2026-05-05 14:51 | 21.84751 | 117.09827 | 33623 ft | 550 kts | 66° |
| 2026-05-05 14:51 | 21.86128 | 117.13642 | 33964 ft | 549 kts | 66° |
| 2026-05-05 14:51 | 21.87512 | 117.17483 | 34254 ft | 548 kts | 66° |
| 2026-05-05 14:51 | 21.88873 | 117.21269 | 34508 ft | 548 kts | 66° |
| 2026-05-05 14:52 | 21.90248 | 117.25095 | 34793 ft | 548 kts | 66° |
| 2026-05-05 14:52 | 21.91618 | 117.28909 | 35075 ft | 547 kts | 66° |
| 2026-05-05 14:52 | 21.92985 | 117.32720 | 35380 ft | 546 kts | 66° |
| 2026-05-05 14:52 | 21.94352 | 117.36532 | 35666 ft | 546 kts | 66° |
| 2026-05-05 14:53 | 21.95729 | 117.40374 | 35885 ft | 547 kts | 66° |
| 2026-05-05 14:53 | 21.97092 | 117.44178 | 36157 ft | 546 kts | 66° |
| 2026-05-05 14:53 | 21.98478 | 117.47982 | 36421 ft | 545 kts | 64° |
| 2026-05-05 14:53 | 22.00182 | 117.51620 | 36618 ft | 542 kts | 57° |
| 2026-05-05 14:54 | 22.02079 | 117.55150 | 36873 ft | 541 kts | 56° |
| 2026-05-05 14:54 | 22.04008 | 117.58606 | 37145 ft | 540 kts | 55° |
| 2026-05-05 14:54 | 22.05972 | 117.62059 | 37415 ft | 539 kts | 54° |
| 2026-05-05 14:54 | 22.07946 | 117.65507 | 37663 ft | 539 kts | 54° |
| 2026-05-05 14:55 | 22.09914 | 117.68947 | 37925 ft | 538 kts | 54° |
| 2026-05-05 14:55 | 22.11850 | 117.72339 | 38188 ft | 538 kts | 54° |